Airport View

Enter AWOS ICAO identifier for current METAR.

ex. KFNL

KVUJ 270050Z AUTO 20003KT 10SM CLR 03/00 A3000 RMK AO2 T00330002

27 Jan 2020 00:56

Frequency: 128.175

Phone: 704-986-2097

Other Area AWOS: KHBI - KJQF - KSCR - KRCZ

TAF KCLT 262320Z 2700/2806 28005KT P6SM SCT070 BKN150 FM270200 24003KT P6SM SCT060 BKN120 FM271000 23003KT P6SM OVC050 FM271500 24007KT P6SM VCSH OVC040 PROB30 2715/2720 -SHRA OVC030 FM272100 28007KT P6SM BKN050 FM272300 30006KT P6SM FEW060 SCT200